createdAt,value
2023-07-21T00:01:21.306Z,23.29
2023-07-21T00:04:25.889Z,23.30
2023-07-21T00:07:27.936Z,23.24
2023-07-21T00:10:30.324Z,23.29
2023-07-21T00:13:37.219Z,23.27
2023-07-21T00:16:39.665Z,23.27
2023-07-21T00:19:42.594Z,23.00
2023-07-21T00:22:45.495Z,23.23
2023-07-21T00:25:48.502Z,23.11
2023-07-21T00:28:50.991Z,23.14
2023-07-21T00:31:54.711Z,23.19
2023-07-21T00:34:56.854Z,23.25
2023-07-21T00:38:02.550Z,23.25
2023-07-21T00:41:05.164Z,23.21
2023-07-21T00:44:09.722Z,23.16
2023-07-21T00:47:14.303Z,23.16
2023-07-21T00:50:18.323Z,23.13
2023-07-21T00:53:21.784Z,23.22
2023-07-21T00:56:25.749Z,23.18
2023-07-21T00:59:28.520Z,23.04
2023-07-21T01:02:33.842Z,23.08
2023-07-21T01:05:42.507Z,23.12
2023-07-21T01:08:46.045Z,23.14
2023-07-21T01:11:48.497Z,23.16
2023-07-21T01:14:51.012Z,23.15
2023-07-21T01:17:55.206Z,23.18
2023-07-21T01:20:58.645Z,23.16
2023-07-21T01:24:09.798Z,23.15
2023-07-21T01:27:14.764Z,23.12
2023-07-21T01:30:20.775Z,23.04
2023-07-21T01:33:24.445Z,22.99
2023-07-21T01:36:27.912Z,22.98
2023-07-21T01:39:32.480Z,22.97
2023-07-21T01:42:35.314Z,22.97
2023-07-21T01:45:38.802Z,23.02
2023-07-21T01:48:42.193Z,22.93
2023-07-21T01:51:46.142Z,22.95
2023-07-21T01:54:55.031Z,22.88
2023-07-21T01:58:04.241Z,22.94
2023-07-21T02:01:07.512Z,22.79
2023-07-21T02:04:09.683Z,22.69
2023-07-21T02:07:12.753Z,22.63
2023-07-21T02:10:14.962Z,22.56
2023-07-21T02:13:17.260Z,22.49
2023-07-21T02:16:19.343Z,22.31
2023-07-21T02:19:21.890Z,22.34
2023-07-21T02:22:23.983Z,22.30
2023-07-21T02:25:26.141Z,22.20
2023-07-21T02:28:28.332Z,22.30
2023-07-21T02:31:30.583Z,22.31
2023-07-21T02:34:32.920Z,22.34
2023-07-21T02:37:35.677Z,22.39
2023-07-21T02:40:38.390Z,22.38
2023-07-21T02:43:43.594Z,22.36
2023-07-21T02:46:46.453Z,22.42
2023-07-21T02:49:51.803Z,22.25
2023-07-21T02:52:55.899Z,22.00
2023-07-21T02:56:01.815Z,22.02
2023-07-21T02:59:04.196Z,21.92
2023-07-21T03:02:07.067Z,22.24
2023-07-21T03:05:10.138Z,22.25
2023-07-21T03:08:15.753Z,22.34
2023-07-21T03:11:18.967Z,22.54
2023-07-21T03:14:21.262Z,22.58
2023-07-21T03:17:23.577Z,22.44
2023-07-21T03:20:26.943Z,22.37
2023-07-21T03:23:29.260Z,22.30
2023-07-21T03:26:31.824Z,22.29
2023-07-21T03:29:34.236Z,22.22
2023-07-21T03:32:47.778Z,22.31
2023-07-21T03:35:59.365Z,22.19
2023-07-21T03:39:06.924Z,22.27
2023-07-21T03:42:14.528Z,22.18
2023-07-21T03:45:17.235Z,22.10
2023-07-21T03:48:19.952Z,22.28
2023-07-21T03:51:22.494Z,22.17
2023-07-21T03:54:25.154Z,22.02
2023-07-21T03:57:27.622Z,22.01
2023-07-21T04:00:31.632Z,22.05
2023-07-21T04:03:37.109Z,22.01
2023-07-21T04:06:39.897Z,22.14
2023-07-21T04:09:42.888Z,22.20
2023-07-21T04:12:47.627Z,22.15
2023-07-21T04:15:53.173Z,22.32
2023-07-21T04:18:55.389Z,22.41
2023-07-21T04:21:57.997Z,22.43
2023-07-21T04:25:00.375Z,22.06
2023-07-21T04:28:02.973Z,22.29
2023-07-21T04:31:05.231Z,22.34
2023-07-21T04:34:07.900Z,22.28
2023-07-21T04:37:11.162Z,22.18
2023-07-21T04:40:13.536Z,22.28
2023-07-21T04:43:17.111Z,22.09
2023-07-21T04:46:19.969Z,22.18
2023-07-21T04:49:22.635Z,22.16
2023-07-21T04:52:26.194Z,22.31
2023-07-21T04:55:30.838Z,22.31
2023-07-21T04:58:35.754Z,22.62
2023-07-21T05:01:38.260Z,22.42
2023-07-21T05:04:41.916Z,22.63
2023-07-21T05:07:56.794Z,22.47
2023-07-21T05:11:03.363Z,22.68
2023-07-21T05:14:07.830Z,22.45
2023-07-21T05:17:10.784Z,22.44
2023-07-21T05:20:13.787Z,22.58
2023-07-21T05:23:21.640Z,22.46
2023-07-21T05:26:24.102Z,22.82
2023-07-21T05:29:28.750Z,22.66
2023-07-21T05:32:36.930Z,22.61
2023-07-21T05:35:39.983Z,22.54
2023-07-21T05:38:42.951Z,22.52
2023-07-21T05:41:45.221Z,22.87
2023-07-21T05:44:48.295Z,22.84
2023-07-21T05:47:54.047Z,22.92
2023-07-21T05:50:57.404Z,23.00
2023-07-21T05:54:02.858Z,22.99
2023-07-21T05:57:07.197Z,23.04
2023-07-21T06:00:16.924Z,22.88
2023-07-21T06:03:21.264Z,22.92
2023-07-21T06:06:25.692Z,22.88
2023-07-21T06:09:29.679Z,22.96
2023-07-21T06:12:32.688Z,22.93
2023-07-21T06:15:39.271Z,22.94
2023-07-21T06:18:42.786Z,22.80
2023-07-21T06:21:45.206Z,22.86
2023-07-21T06:24:54.970Z,22.80
2023-07-21T06:27:59.935Z,22.84
2023-07-21T06:31:02.190Z,22.82
2023-07-21T06:34:09.361Z,22.70
2023-07-21T06:37:11.570Z,22.78
2023-07-21T06:40:13.903Z,22.80
2023-07-21T06:43:16.219Z,22.91
2023-07-21T06:46:19.536Z,22.80
2023-07-21T06:49:22.004Z,22.79
2023-07-21T06:52:25.678Z,22.84
2023-07-21T06:55:27.716Z,23.00
2023-07-21T06:58:29.928Z,23.00
2023-07-21T07:01:32.874Z,23.02
2023-07-21T07:04:35.834Z,22.95
2023-07-21T07:07:39.229Z,23.02
2023-07-21T07:10:41.137Z,23.00
2023-07-21T07:13:43.186Z,23.07
2023-07-21T07:16:45.544Z,23.13
2023-07-21T07:19:47.847Z,23.26
2023-07-21T07:22:51.412Z,23.15
2023-07-21T07:25:55.296Z,23.12
2023-07-21T07:28:58.600Z,23.13
2023-07-21T07:32:01.214Z,23.08
2023-07-21T07:35:05.572Z,23.05
2023-07-21T07:38:07.719Z,23.15
2023-07-21T07:41:11.156Z,23.04
2023-07-21T07:44:20.222Z,23.16
2023-07-21T07:47:31.719Z,23.25
2023-07-21T07:50:40.637Z,23.24
2023-07-21T07:53:42.950Z,23.24
2023-07-21T07:56:49.106Z,23.42
2023-07-21T07:59:53.465Z,23.79
2023-07-21T08:02:56.230Z,23.71
2023-07-21T08:06:00.350Z,23.90
2023-07-21T08:09:04.456Z,23.89
2023-07-21T08:12:07.625Z,24.51
2023-07-21T08:15:11.011Z,24.38
2023-07-21T08:18:13.698Z,24.56
2023-07-21T08:21:29.821Z,24.88
2023-07-21T08:24:37.052Z,24.82
2023-07-21T08:27:39.595Z,24.48
2023-07-21T08:30:56.532Z,24.66
2023-07-21T08:33:59.651Z,24.77
2023-07-21T08:37:02.003Z,24.60
2023-07-21T08:40:05.812Z,24.86
2023-07-21T08:43:09.090Z,24.91
2023-07-21T08:46:12.111Z,25.01
2023-07-21T08:49:20.748Z,24.88
2023-07-21T08:52:23.421Z,25.23
2023-07-21T08:55:26.793Z,25.03
2023-07-21T08:58:29.696Z,25.40
2023-07-21T09:01:31.874Z,25.10
2023-07-21T09:04:34.294Z,25.02
2023-07-21T09:07:37.723Z,25.26
2023-07-21T09:10:40.347Z,25.40
2023-07-21T09:13:52.844Z,25.73
2023-07-21T09:16:59.087Z,25.67
2023-07-21T09:20:08.650Z,26.00
2023-07-21T09:23:11.306Z,25.89
2023-07-21T09:26:14.057Z,25.93
2023-07-21T09:29:20.573Z,25.97
2023-07-21T09:32:24.015Z,25.84
2023-07-21T09:35:31.289Z,26.16
2023-07-21T09:38:35.869Z,26.08
2023-07-21T09:41:40.736Z,26.22
2023-07-21T09:44:44.187Z,26.18
2023-07-21T09:47:47.691Z,26.08
2023-07-21T09:50:49.866Z,26.03
2023-07-21T09:53:54.467Z,26.46
2023-07-21T09:56:58.475Z,26.78
2023-07-21T10:00:06.564Z,26.76
2023-07-21T10:03:12.982Z,27.05
2023-07-21T10:06:24.337Z,27.12
2023-07-21T10:09:28.277Z,26.92
2023-07-21T10:12:44.319Z,26.90
2023-07-21T10:15:50.974Z,26.46
2023-07-21T10:19:13.772Z,26.64
2023-07-21T10:22:29.705Z,26.93
2023-07-21T10:26:06.978Z,26.82
2023-07-21T10:29:20.183Z,27.03
2023-07-21T10:32:22.780Z,26.92
2023-07-21T10:35:52.946Z,26.97
2023-07-21T10:39:05.770Z,26.94
2023-07-21T10:42:10.453Z,26.99
2023-07-21T10:45:30.256Z,26.88
2023-07-21T10:48:38.823Z,27.04
2023-07-21T10:51:46.319Z,27.13
2023-07-21T10:55:00.365Z,27.18
2023-07-21T10:58:19.155Z,27.45
2023-07-21T11:01:31.196Z,27.03
2023-07-21T11:04:40.858Z,26.65
2023-07-21T11:07:48.661Z,26.74
2023-07-21T11:10:55.624Z,26.55
2023-07-21T11:14:00.439Z,26.67
2023-07-21T11:17:05.442Z,26.79
2023-07-21T11:20:12.201Z,26.51
2023-07-21T11:23:14.900Z,26.61
2023-07-21T11:26:21.649Z,26.52
2023-07-21T11:29:27.422Z,26.05
2023-07-21T11:32:29.683Z,26.12
2023-07-21T11:35:34.942Z,26.08
2023-07-21T11:38:38.440Z,26.05
2023-07-21T11:41:45.347Z,26.01
2023-07-21T11:44:50.514Z,25.88
2023-07-21T11:47:53.228Z,25.73
2023-07-21T11:50:57.096Z,25.60
2023-07-21T11:54:01.299Z,25.63
2023-07-21T11:57:03.656Z,25.64
2023-07-21T12:00:12.737Z,25.81
2023-07-21T12:03:15.010Z,25.55
2023-07-21T12:06:17.222Z,25.58
2023-07-21T12:09:22.392Z,25.51
2023-07-21T12:12:25.897Z,25.25
2023-07-21T12:15:31.174Z,25.34
2023-07-21T12:18:34.702Z,25.55
2023-07-21T12:21:44.287Z,25.74
2023-07-21T12:24:49.865Z,25.99
2023-07-21T12:27:52.332Z,26.21
2023-07-21T12:30:55.442Z,26.08
2023-07-21T12:33:58.230Z,26.27
2023-07-21T12:37:04.398Z,26.31
2023-07-21T12:40:14.932Z,26.21
2023-07-21T12:43:24.120Z,26.39
2023-07-21T12:46:27.373Z,26.01
2023-07-21T12:49:30.402Z,26.21
2023-07-21T12:52:35.737Z,26.19
2023-07-21T12:55:46.170Z,26.43
2023-07-21T12:58:49.041Z,26.33
2023-07-21T13:01:51.896Z,26.34
2023-07-21T13:04:55.443Z,26.57
2023-07-21T13:07:58.073Z,26.36
2023-07-21T13:11:02.662Z,25.99
2023-07-21T13:14:05.296Z,26.11
2023-07-21T13:17:07.484Z,26.35
2023-07-21T13:20:15.333Z,26.13
2023-07-21T13:23:22.623Z,26.35
2023-07-21T13:26:26.640Z,26.02
2023-07-21T13:29:28.859Z,25.89
2023-07-21T13:32:37.116Z,26.20
2023-07-21T13:35:40.666Z,26.02
2023-07-21T13:38:42.879Z,25.96
2023-07-21T13:41:46.274Z,25.95
2023-07-21T13:44:49.787Z,26.01
2023-07-21T13:47:52.278Z,25.86
2023-07-21T13:50:58.700Z,25.77
2023-07-21T13:54:01.266Z,25.59
2023-07-21T13:57:03.832Z,25.70
2023-07-21T14:00:19.512Z,25.85
2023-07-21T14:03:23.178Z,26.02
2023-07-21T14:06:25.738Z,25.81
2023-07-21T14:09:28.558Z,25.55
2023-07-21T14:12:33.684Z,25.36
2023-07-21T14:15:37.430Z,25.40
2023-07-21T14:18:39.845Z,25.38
2023-07-21T14:21:45.087Z,25.41
2023-07-21T14:24:47.598Z,25.26
2023-07-21T14:27:50.107Z,24.94
2023-07-21T14:30:55.224Z,25.02
2023-07-21T14:33:58.541Z,25.06
2023-07-21T14:37:01.560Z,25.00
2023-07-21T14:40:12.235Z,24.99
2023-07-21T14:43:14.312Z,25.13
2023-07-21T14:46:17.245Z,24.81
2023-07-21T14:49:25.446Z,25.16
2023-07-21T14:52:28.431Z,25.20
2023-07-21T14:55:30.699Z,25.14
2023-07-21T14:58:33.657Z,24.79
2023-07-21T15:01:36.528Z,24.73
2023-07-21T15:04:39.308Z,24.64
2023-07-21T15:07:42.673Z,25.07
2023-07-21T15:10:46.281Z,24.82
2023-07-21T15:13:50.069Z,24.64
2023-07-21T15:16:58.493Z,24.75
2023-07-21T15:20:02.811Z,24.78
2023-07-21T15:23:06.036Z,24.84
2023-07-21T15:26:08.595Z,24.74
2023-07-21T15:29:13.840Z,24.70
2023-07-21T15:32:16.485Z,24.66
2023-07-21T15:35:18.851Z,24.69
2023-07-21T15:38:21.210Z,24.75
2023-07-21T15:41:24.735Z,24.72
2023-07-21T15:44:27.456Z,24.82
2023-07-21T15:47:29.845Z,24.83
2023-07-21T15:50:32.056Z,24.77
2023-07-21T15:53:34.316Z,24.98
2023-07-21T15:56:36.693Z,24.90
2023-07-21T15:59:38.937Z,24.81
2023-07-21T16:02:42.126Z,24.64
2023-07-21T16:05:44.269Z,24.53
2023-07-21T16:08:47.960Z,24.67
2023-07-21T16:11:52.677Z,24.45
2023-07-21T16:14:54.750Z,24.48
2023-07-21T16:17:57.033Z,24.52
2023-07-21T16:21:02.914Z,24.48
2023-07-21T16:24:07.044Z,24.51
2023-07-21T16:27:10.078Z,24.66
2023-07-21T16:30:12.830Z,24.67
2023-07-21T16:33:15.325Z,24.60
2023-07-21T16:36:20.369Z,24.50
2023-07-21T16:39:23.008Z,24.57
2023-07-21T16:42:25.458Z,24.37
2023-07-21T16:45:28.660Z,24.24
2023-07-21T16:48:30.954Z,24.25
2023-07-21T16:51:33.261Z,24.19
2023-07-21T16:54:36.908Z,24.22
2023-07-21T16:57:39.503Z,24.12
2023-07-21T17:00:41.925Z,24.14
2023-07-21T17:03:45.117Z,24.13
2023-07-21T17:06:47.608Z,24.09
2023-07-21T17:09:52.837Z,23.90
2023-07-21T17:12:57.430Z,24.04
2023-07-21T17:15:59.957Z,24.10
2023-07-21T17:19:02.258Z,23.95
2023-07-21T17:22:05.024Z,23.93
2023-07-21T17:25:07.705Z,23.82
2023-07-21T17:28:10.018Z,23.81
2023-07-21T17:31:12.304Z,23.62
2023-07-21T17:34:15.800Z,22.98
2023-07-21T17:37:18.450Z,22.96
2023-07-21T17:40:20.603Z,22.65
2023-07-21T17:43:23.277Z,22.46
2023-07-21T17:46:25.614Z,22.01
2023-07-21T17:49:29.446Z,22.11
2023-07-21T17:52:31.589Z,21.84
2023-07-21T17:55:33.524Z,22.01
2023-07-21T17:58:37.809Z,21.95
2023-07-21T18:01:40.099Z,22.02
2023-07-21T18:04:42.208Z,21.50
2023-07-21T18:07:44.192Z,21.09
2023-07-21T18:10:46.115Z,20.91
2023-07-21T18:13:48.463Z,20.53
2023-07-21T18:16:50.417Z,20.36
2023-07-21T18:19:53.528Z,20.76
2023-07-21T18:22:57.094Z,20.42
2023-07-21T18:25:59.848Z,20.41
2023-07-21T18:29:02.103Z,20.23
2023-07-21T18:32:05.697Z,19.98
2023-07-21T18:35:08.092Z,19.90
2023-07-21T18:38:10.750Z,19.90
2023-07-21T18:41:15.233Z,19.61
2023-07-21T18:44:18.573Z,19.79
2023-07-21T18:47:20.850Z,19.58
2023-07-21T18:50:24.084Z,19.75
2023-07-21T18:53:26.710Z,19.86
2023-07-21T18:56:28.700Z,20.03
2023-07-21T18:59:31.105Z,19.98
2023-07-21T19:02:33.272Z,19.65
2023-07-21T19:05:36.646Z,19.69
2023-07-21T19:08:38.978Z,19.88
2023-07-21T19:11:41.153Z,19.62
2023-07-21T19:14:49.046Z,19.76
2023-07-21T19:17:51.255Z,19.69
2023-07-21T19:20:53.343Z,19.82
2023-07-21T19:23:55.398Z,19.58
2023-07-21T19:26:58.464Z,19.88
2023-07-21T19:30:01.496Z,19.81
2023-07-21T19:33:03.701Z,19.61
2023-07-21T19:36:06.641Z,19.64
2023-07-21T19:39:08.771Z,19.66
2023-07-21T19:42:11.127Z,19.80
2023-07-21T19:45:15.745Z,19.69
2023-07-21T19:48:18.065Z,19.46
2023-07-21T19:51:20.302Z,19.49
2023-07-21T19:54:27.877Z,19.58
2023-07-21T19:57:30.216Z,19.70
2023-07-21T20:00:32.184Z,19.86
2023-07-21T20:03:34.418Z,19.72
2023-07-21T20:06:36.528Z,19.73
2023-07-21T20:09:39.892Z,19.73
2023-07-21T20:12:42.397Z,19.68
2023-07-21T20:15:45.775Z,19.66
2023-07-21T20:18:48.079Z,19.81
2023-07-21T20:21:51.466Z,19.88
2023-07-21T20:24:53.848Z,19.87
2023-07-21T20:28:03.572Z,20.02
2023-07-21T20:31:05.957Z,19.84
2023-07-21T20:34:08.636Z,19.98
2023-07-21T20:37:12.304Z,19.98
2023-07-21T20:40:15.551Z,20.11
2023-07-21T20:43:17.547Z,20.21
2023-07-21T20:46:20.807Z,20.19
2023-07-21T20:49:22.983Z,20.13
2023-07-21T20:52:25.186Z,20.18
2023-07-21T20:55:27.354Z,20.18
2023-07-21T20:58:29.454Z,20.16
2023-07-21T21:01:33.014Z,20.08
2023-07-21T21:04:35.234Z,19.95
2023-07-21T21:07:37.575Z,19.90
2023-07-21T21:10:42.319Z,19.73
2023-07-21T21:13:47.008Z,19.57
2023-07-21T21:16:49.150Z,19.42
2023-07-21T21:19:51.599Z,19.50
2023-07-21T21:23:00.432Z,19.17
2023-07-21T21:26:02.905Z,18.98
2023-07-21T21:29:05.374Z,19.26
2023-07-21T21:32:08.284Z,19.18
2023-07-21T21:35:10.968Z,19.34
2023-07-21T21:38:13.254Z,19.24
2023-07-21T21:41:17.465Z,19.01
2023-07-21T21:44:20.429Z,19.13
2023-07-21T21:47:22.600Z,18.97
2023-07-21T21:50:24.733Z,18.95
2023-07-21T21:53:26.803Z,19.04
2023-07-21T21:56:29.485Z,19.10
2023-07-21T21:59:32.456Z,19.19
2023-07-21T22:02:35.640Z,19.25
2023-07-21T22:05:37.864Z,19.15
2023-07-21T22:08:40.603Z,19.17
2023-07-21T22:11:42.743Z,19.18
2023-07-21T22:14:56.160Z,19.15
2023-07-21T22:17:59.702Z,19.21
2023-07-21T22:21:04.623Z,19.23
2023-07-21T22:24:07.074Z,19.29
2023-07-21T22:27:09.267Z,19.13
2023-07-21T22:30:11.742Z,19.22
2023-07-21T22:33:13.899Z,19.10
2023-07-21T22:36:18.535Z,19.19
2023-07-21T22:39:20.480Z,19.01
2023-07-21T22:42:23.477Z,19.13
2023-07-21T22:45:25.700Z,19.17
2023-07-21T22:48:32.004Z,19.26
2023-07-21T22:51:34.323Z,19.23
2023-07-21T22:54:36.683Z,19.06
2023-07-21T22:57:38.940Z,18.85
2023-07-21T23:00:41.506Z,19.05
2023-07-21T23:03:43.554Z,19.02
2023-07-21T23:06:47.732Z,19.08
2023-07-21T23:09:50.364Z,19.16
2023-07-21T23:12:55.117Z,19.23
2023-07-21T23:15:57.105Z,19.21
2023-07-21T23:18:59.462Z,19.13
2023-07-21T23:22:01.783Z,19.22
2023-07-21T23:25:04.239Z,19.28
2023-07-21T23:28:06.937Z,19.21
2023-07-21T23:31:10.066Z,19.18
2023-07-21T23:34:12.446Z,19.21
2023-07-21T23:37:14.613Z,19.26
2023-07-21T23:40:17.680Z,19.22
2023-07-21T23:43:19.921Z,19.31
2023-07-21T23:46:22.109Z,19.24
2023-07-21T23:49:24.230Z,19.33
2023-07-21T23:52:26.394Z,19.40
2023-07-21T23:55:28.748Z,19.47
2023-07-21T23:58:30.893Z,19.56
